Tiempo atmosférico en la estación meteorológica de La Pinilla, estación de esquí, Segovia (1860 m.)



Fecha
DESCASC
Temp. máxima en grados centígrados (hora)
DESCASC
Temp. mínima en grados centígrados (hora)
DESCASC
Temp. media en grados centígrados
DESCASC
Racha de viento máxima en m/sg (hora)
DESCASC
Velocidad máxima media en intervalos de 10 minutos(hora)
DESCASC
Precipitaciones diarias en mm
DESCASC
Precipitaciones de 00:00 a 06:00 en mm
DESCASC
Precipitaciones de 06:00 a 12:00 en mm
DESCASC
Precipitaciones de 12:00 a 18:00 en mm
DESCASC
Precipitaciones de 18:00 a 24:00 en mm
DESCASC
17-10-2019 11.4 (03:50) 4.7 (01:10) 8 16.67 (02:00) 11.39 (01:50) 7.2 0 5.6 1 0.6
16-10-2019 13.5 (16:20) 2.5 (07:20) 8 11.94 (20:30) 8.06 (23:20) 0 0 0 0 0
15-10-2019 6 (17:00) -0.6 (05:50) 2.7 19.17 (01:50) 6.11 (04:50) 0 0 0 0 0
14-10-2019 12.9 (01:50) -0.3 (23:50) 6.3 29.17 (09:40) 11.67 (14:30) 13.2 0 0 3.4 9.8
13-10-2019 15.4 (15:40) 9.4 (00:00) 12.4 26.39 (08:00) 10.56 (14:30) 0 0 0 0 0
12-10-2019 18.3 (15:20) 10.6 (00:00) 14.4 23.33 (22:50) 9.17 (14:20) 0.4 0 0 0 0.4
10-10-2019 21 (16:20) 8.9 (00:00) 14.9 11.39 (23:00) 8.61 (22:50) 0 0 0 0 0
09-10-2019 19.1 (15:00) 7.3 (00:00) 13.2 13.89 (06:00) 7.22 (06:00) 0 0 0 0 0
08-10-2019 23.7 (14:20) 11.2 (00:00) 17.5 7.5 (16:30) 3.33 (00:50) 0 0 0 0 0
07-10-2019 18.6 (12:50) 8.5 (00:00) 13.6 8.89 (15:30) 5 (16:10) 0 0 0 0 0
06-10-2019 19.2 (16:10) 8.1 (00:00) 13.7 8.33 (18:20) 4.44 (06:20) 0 0 0 0 0
05-10-2019 20.7 (15:40) 7.4 (08:40) 14.1 6.11 (20:00) 3.61 (02:10) 0 0 0 0 0
04-10-2019 21 (12:10) 8.7 (00:00) 14.8 8.33 (17:00) 4.17 (03:10) 0 0 0 0 0
03-10-2019 19 (15:30) 5 (00:00) 12 7.78 (17:10) 3.89 (14:00) 0 0 0 0 0
02-10-2019 12.4 (16:30) 3.7 (00:00) 8 13.33 (04:40) 5.83 (04:40) 0 0 0 0 0
01-10-2019 16.6 (13:20) 8.8 (00:00) 12.7 14.72 (23:40) 5.83 (18:10) 0 0 0 0 0
30-09-2019 23.5 (15:40) 10.8 (00:00) 17.2 9.44 (18:40) 6.39 (07:30) 0 0 0 0 0
29-09-2019 21.3 (15:10) 11.9 (00:00) 16.6 11.67 (07:50) 5.83 (02:50) 0 0 0 0 0
28-09-2019 22.4 (15:30) 9.5 (00:00) 15.9 13.89 (10:20) 8.06 (03:50) 0 0 0 0 0
27-09-2019 20.5 (15:20) 9.9 (00:00) 15.2 10.28 (16:00) 4.72 (05:50) 0 0 0 0 0
26-09-2019 21.3 (15:30) 8.8 (00:00) 15 8.61 (06:50) 4.72 (08:40) 0 0 0 0 0
25-09-2019 16.2 (16:40) 4.7 (00:00) 10.5 13.61 (00:40) 4.44 (10:00) 0 0 0 0 0
24-09-2019 14.7 (04:40) 9.7 (00:00) 12.2 16.11 (23:30) 6.94 (00:30) 4.2 0 0 1.2 3
23-09-2019 17.5 (14:30) 6 (00:00) 11.8 11.94 (21:10) 5.28 (23:59) 0 0 0 0 0
22-09-2019 12.4 (17:30) 6.2 (00:00) 9.3 20.28 (00:20) 13.89 (00:20) 6 4.2 1.8 0 0
21-09-2019 11.8 (13:20) 8.7 (00:00) 10.3 20 (22:10) 13.33 (23:50) 10 7.4 0 0.8 1.8
20-09-2019 17.2 (13:20) 9.3 (00:00) 13.3 23.06 (17:20) 8.89 (04:30) 20.6 0 0 0 20.6
19-09-2019 20.4 (14:00) 10.9 (00:00) 15.6 12.78 (23:59) 6.67 (18:40) 0 0 0 0 0

Gráficas

Temp. máximas Temp. mínimas Temp. medias Precipitaciones Rachas de viento máximas Velocidades máximas media en intervalos de 10 minutos

Datos horarios

Fecha y hora oficial Temperatura (ºC) Velocidad del viento (km/h) Dirección del viento Racha (km/h) Dirección de racha Precipitación (mm) Presión (hPa) Tendencia (hPa) Humedad (%)
2019-10-18 23:00:00 7.7 22 Sudoeste 46 Sudoeste 0 818.8 -0.3 90
2019-10-18 22:00:00 8 28 Sur 46 Sur 0 818.9 0.1 87
2019-10-18 21:00:00 8.2 30 Sur 52 Sur 0 818.8 -0.8 91
2019-10-18 20:00:00 9.3 31 Sur 53 Sur 0 819.1 -1.2 86
2019-10-18 19:00:00 9.8 36 Sur 53 Sur 0 818.8 -1.9 85
2019-10-18 18:00:00 10.8 25 Sur 52 Sur 0 819.6 -1.4 76
2019-10-18 17:00:00 11.7 8 Sudoeste 24 Oeste 0 820.3 -0.9 78
2019-10-18 16:00:00 10.4 3 Sudeste 21 Noroeste 0 820.7 -1 90
2019-10-18 15:00:00 11.9 7 Norte 36 Sudoeste 0 821 -0.9 82
2019-10-18 14:00:00 12.9 15 Sudoeste 33 Noroeste 0 821.2 -0.9 67
2019-10-18 13:00:00 10.3 12 Nordeste 50 Noroeste 0 821.7 -0.4 77
2019-10-18 12:00:00 8.1 12 Este 39 Oeste 0.4 821.9 0.5 95
2019-10-18 11:00:00 8.6 13 Noroeste 44 Sudeste 0.6 822.1 1 96
2019-10-18 10:00:00 8.4 6 Nordeste 29 Noroeste 2.2 822.1 1.2 96
2019-10-18 09:00:00 8.8 8 Norte 36 Noroeste 2.2 821.4 0.1 96
2019-10-18 08:00:00 9.9 26 Sur 94 Sur 0.4 821.1 0.1 90
2019-10-18 07:00:00 8.9 29 Sur 52 Sur 1.8 820.9 -0.6 91
2019-10-18 06:00:00 9.8 18 Sur 63 Sur 0.8 821.3 -0.4 86
2019-10-18 05:00:00 10 21 Sudeste 50 Sudoeste 0 821 -1.1 87
2019-10-18 04:00:00 9.8 22 Sudeste 63 Sur 0.6 821.5 -0.8 90
2019-10-18 03:00:00 10.1 29 Sur 67 Sudoeste 0 821.7 -0.6 85
2019-10-18 02:00:00 9.6 19 Sudeste 70 Sudoeste 0.2 822.1 -0.7 89
2019-10-18 01:00:00 9.3 27 Sur 55 Sudoeste 0.8 822.3 -0.4 90
2019-10-18 00:00:00 8.3 36 Sur 52 Sur 0.2 822.3 -0.7 94
2019-10-17 23:00:00 8.3 26 Sur 42 Sudoeste 0.4 822.8 0.2 90
2019-10-17 22:00:00 9.4 13 Sudeste 35 Sudoeste 0 822.7 0.4 91
2019-10-17 21:00:00 9.7 16 Sudeste 44 Sur 0 823 0.8 86
2019-10-17 20:00:00 9.3 17 Sur 40 Sudeste 0 822.6 0.3 86
2019-10-17 19:00:00 9.6 13 Sudeste 34 Sur 0 822.3 0 89
2019-10-17 18:00:00 9.5 8 Noroeste 28 Norte 0 822.2 -0.2 93
2019-10-17 17:00:00 9.3 10 Sudeste 35 Oeste 0 822.3 -0.4 95
2019-10-17 16:00:00 9.2 12 Noroeste 44 Noroeste 0 822.3 -0.6 96
2019-10-17 15:00:00 9.1 12 Este 45 Noroeste 0 822.4 -0.3 97
2019-10-17 14:00:00 8.5 14 Nordeste 51 Oeste 0.2 822.7 0.2 97
2019-10-17 13:00:00 8.4 15 Noroeste 40 Norte 0.8 822.9 0.9 97
2019-10-17 12:00:00 8.3 10 Sudoeste 49 Noroeste 0.2 822.7 1 97
2019-10-17 11:00:00 8.2 13 Nordeste 55 Noroeste 1 822.5 1.4 97
2019-10-17 10:00:00 8.3 15 Norte 58 Noroeste 0.8 822 1.2 96
2019-10-17 09:00:00 8.1 18 Noroeste 44 Noroeste 2.2 821.7 0.8 96
2019-10-17 08:00:00 8.2 12 Noroeste 53 Oeste 1.4 821.1 0.3 95
2019-10-17 07:00:00 8.8 15 Noroeste 53 Noroeste 0 820.8 0 90
2019-10-17 06:00:00 8.4 10 Noroeste 30 Noroeste 0 820.9 -0.3 66
2019-10-17 05:00:00 9.5 15 Sur 46 Sur 0 820.8 -0.5 61
2019-10-17 04:00:00 11.2 30 Sur 43 Sur 0 820.8 -1.5 48
2019-10-17 03:00:00 11.1 30 Sur 49 Sur 0 821.2 -1.3 42
2019-10-17 02:00:00 9.9 39 Sur 60 Sur 0 821.3 -1.2 30
2019-10-17 01:00:00 5 6 Norte 40 Sur 0 822.3 -0.1 80
2019-10-17 00:00:00 6.1 8 Nordeste 42 Sur 0 822.5 0.2 74
2019-10-16 23:00:00 7.7 16 Sur 35 Sur 0 822.5 0.5 63
2019-10-16 22:00:00 7.6 6 Nordeste 37 Sur 0 822.4 0.5 62
2019-10-16 21:00:00 7.8 17 Sur 43 Sudoeste 0 822.3 0.6 58
2019-10-16 20:00:00 8.5 16 Sur 42 Noroeste 0 822 0.2 57
2019-10-16 19:00:00 8.7 13 Sur 28 Sudoeste 0 821.9 -0.5 51
2019-10-16 18:00:00 11.7 8 Sudoeste 22 Noroeste 0 821.7 -1.1 43
2019-10-16 17:00:00 12.7 6 Este 17 Sur 0 821.8 -1.1 32
2019-10-16 16:00:00 12 6 Noroeste 28 Sudoeste 0 822.4 -0.6 41
2019-10-16 15:00:00 12.1 9 Oeste 28 Noroeste 0 822.8 -0.4 49
2019-10-16 14:00:00 10.8 6 Noroeste 27 Sudoeste 0 822.9 -0.3 61
2019-10-16 13:00:00 12 4 Sudoeste 33 Sudoeste 0 823 -0.3 38
2019-10-16 12:00:00 9.7 8 Sur 34 Sur 0 823.2 0.2 40
2019-10-16 11:00:00 6.7 8 Sudoeste 33 Sudoeste 0 823.2 0.7 56
2019-10-16 10:00:00 3.8 18 Sudoeste 35 Sudoeste 0 823.3 0.9 80
2019-10-16 09:00:00 3.1 12 Sudoeste 32 Sur 0 823 0.6 88
2019-10-16 08:00:00 2.7 8 Sudoeste 30 Sudoeste 0 822.5 -0.1 92
2019-10-16 07:00:00 2.6 9 Sudoeste 30 Oeste 0 822.4 -0.4 92
2019-10-16 06:00:00 2.9 6 Sudoeste 27 Noroeste 0 822.4 -0.9 85
2019-10-16 05:00:00 3.4 11 Sur 32 Sur 0 822.6 -0.7 78
2019-10-16 04:00:00 3.9 14 Sur 33 Sudoeste 0 822.8 -0.8 76
2019-10-16 03:00:00 4 14 Sudoeste 31 Sudoeste 0 823.3 -0.2 73
2019-10-16 02:00:00 4.3 17 Sur 33 Sudoeste 0 823.3 -0.5 72
2019-10-16 01:00:00 4 15 Sur 35 Sur 0 823.6 0 74
2019-10-16 00:00:00 3.8 13 Sur 26 Sur 0 823.5 0 74
2019-10-15 23:00:00 3.4 8 Sur 30 Sudoeste 0 823.8 0.3 80
2019-10-15 22:00:00 3.1 10 Sur 28 Sur 0 823.6 0.5 80
2019-10-15 21:00:00 3 14 Sur 32 Sur 0 823.5 0.5 84
2019-10-15 20:00:00 2.9 10 Sur 28 Sur 0 823.5 0.5 83
2019-10-15 19:00:00 3.5 7 Norte 32 Oeste 0 823.1 0.3 83
2019-10-15 18:00:00 4.3 14 Noroeste 32 Oeste 0 823 0.1 82
2019-10-15 17:00:00 5.3 15 Noroeste 39 Noroeste 0 823 -0.2 75
2019-10-15 16:00:00 5.4 14 Oeste 29 Noroeste 0 822.8 -0.3 83
2019-10-15 15:00:00 3.8 8 Noroeste 24 Oeste 0 822.9 -0.5 96
2019-10-15 14:00:00 2.9 9 Sudoeste 29 Norte 0 823.2 0.6 98
2019-10-15 13:00:00 1.3 9 Oeste 29 Noroeste 0 823.1 1.1 99
2019-10-15 12:00:00 0 8 Sur 37 Noroeste 0 823.4 2.2 99
2019-10-15 11:00:00 -0.1 12 Nordeste 43 Norte 0 822.6 1.7 99
2019-10-15 10:00:00 -0.1 13 Norte 60 Noroeste 0 822 1.5 99
2019-10-15 09:00:00 -0.2 22 Norte 50 Norte 0 821.2 1.2 99
2019-10-15 08:00:00 -0.2 17 Norte 52 Norte 0 820.9 1 99
2019-10-15 07:00:00 -0.3 17 Norte 48 Nordeste 0 820.5 0.6 99
2019-10-15 06:00:00 -0.6 15 Este 48 Noroeste 0 820 0.1 99
2019-10-15 05:00:00 -0.3 15 Noroeste 51 Norte 0 819.9 0.5 99
2019-10-15 04:00:00 -0.3 19 Norte 57 Noroeste 0 819.9 0.6 99
2019-10-15 03:00:00 -0.2 14 Norte 52 Sudoeste 0 819.9 0.7 99
2019-10-15 02:00:00 0 17 Este 69 Norte 0 819.4 0.6 99
2019-10-15 01:00:00 0.1 15 Norte 53 Oeste 0 819.3 1.2 99
2019-10-15 00:00:00 -0.2 18 Noroeste 67 Noroeste 0 819.2 1.2 99
2019-10-14 23:00:00 0.6 24 Noroeste 64 Noroeste 0 818.8 1.4 99
2019-10-14 22:00:00 1.4 16 Sudeste 74 Noroeste 1 818.1 -0.2 98
2019-10-14 21:00:00 1.1 11 Norte 59 Noroeste 1.6 818 0.4 98
2019-10-14 20:00:00 1.4 18 Norte 67 Sudeste 2.4 817.4 0.8 98
2019-10-14 19:00:00 0.3 19 Noroeste 72 Noroeste 4.8 818.3 1.9 98
2019-10-14 18:00:00 2 15 Oeste 57 Sur 1.8 817.6 1.2 95
2019-10-14 17:00:00 7.7 13 Noroeste 52 Sudoeste 0 816.6 -0.3 72
2019-10-14 16:00:00 9.7 25 Sudoeste 55 Sur 0 816.4 -0.8 59
2019-10-14 15:00:00 10.6 28 Sur 69 Oeste 0 816.4 -0.3 63
2019-10-14 14:00:00 8.5 31 Sudoeste 74 Oeste 0 816.9 0.4 81
2019-10-14 13:00:00 7.6 28 Sudoeste 81 Sudoeste 1.6 817.2 1.2 92
2019-10-14 12:00:00 8.1 35 Sudoeste 81 Sudoeste 0 816.7 1.3 85
2019-10-14 11:00:00 9.2 25 Oeste 88 Sudoeste 0 816.5 1.5 77
2019-10-14 10:00:00 9.2 39 Sudoeste 105 Oeste 0 816 0.8 80
2019-10-14 09:00:00 9.5 23 Norte 81 Oeste 0 815.4 -0.9 80
2019-10-14 08:00:00 10.3 26 Norte 93 Oeste 0 815 -0.9 73
2019-10-14 07:00:00 10.9 28 Norte 70 Norte 0 815.2 -0.9 68
2019-10-14 06:00:00 11.6 18 Oeste 87 Este 0 816.3 -1 65
2019-10-14 05:00:00 11.9 21 Este 99 Sudeste 0 815.9 -2.7 57
2019-10-14 04:00:00 12.3 23 Norte 87 Sur 0 816.1 -3.5 59
2019-10-14 03:00:00 12.8 34 Norte 73 Norte 0 817.3 -3.8 59
2019-10-14 02:00:00 12.5 17 Norte 51 Nordeste 0 818.6 -2.5 56
2019-10-14 01:00:00 11.3 15 Norte 63 Sudoeste 0 819.6 -1.6 63
2019-10-14 00:00:00 12.4 25 Sudoeste 72 Sudoeste 0 821.1 -0.2 59
2019-10-13 23:00:00 11.7 29 Sur 65 Sudoeste 0 821.1 0 62
2019-10-13 22:00:00 11.4 28 Sur 70 Sudoeste 0 821.2 -0.1 63
2019-10-13 21:00:00 11.2 32 Sur 78 Sudoeste 0 821.3 0 64
2019-10-13 20:00:00 11.2 30 Sur 65 Sudoeste 0 821.1 -0.3 72
2019-10-13 19:00:00 11.7 21 Oeste 61 Sudoeste 0 821.3 -0.3 67
2019-10-13 18:00:00 13.3 18 Oeste 64 Sudoeste 0 821.3 -0.4 53
2019-10-13 17:00:00 14.7 15 Oeste 57 Sudoeste 0 821.4 -0.2 51
2019-10-13 16:00:00 14.5 25 Sur 53 Sudoeste 0 821.6 -0.3 55
2019-10-13 15:00:00 15 20 Sudoeste 58 Sur 0 821.7 -0.1 52
2019-10-13 14:00:00 13.4 37 Sur 77 Sudoeste 0 821.6 -0.4 58
2019-10-13 13:00:00 13 23 Sudoeste 67 Sudoeste 0 821.9 0.3 62
2019-10-13 12:00:00 11.1 23 Sur 57 Sudeste 0 821.8 0.8 70
2019-10-13 11:00:00 10.3 22 Sur 62 Sudoeste 0 822 1.9 74
2019-10-13 10:00:00 9.6 26 Sudoeste 86 Sudoeste 0 821.6 1.8 81
2019-10-13 09:00:00 9.7 32 Sudoeste 82 Sudoeste 0 821 0.8 85
2019-10-13 08:00:00 10.4 27 Oeste 95 Sudoeste 0 820.1 -0.3 82
2019-10-13 07:00:00 10.6 28 Sudoeste 78 Oeste 0 819.8 -1.1 82
2019-10-13 06:00:00 10.2 19 Noroeste 90 Este 0 820.2 -1.1 91
2019-10-13 05:00:00 10.5 21 Nordeste 78 Sudeste 0 820.4 -1.9 83
2019-10-13 04:00:00 11 20 Este 64 Norte 0 820.9 -2.3 63
2019-10-13 03:00:00 11.7 13 Norte 57 Norte 0 821.3 -2.1 59
2019-10-13 02:00:00 12.1 18 Oeste 59 Sudoeste 0 822.3 -1.5 57
2019-10-13 01:00:00 11.3 19 Sudoeste 64 Sudeste 0 823.2 -0.1 63
2019-10-13 00:00:00 11.9 19 Sudoeste 67 Oeste 0 823.4 -0.1 58
2019-10-12 23:00:00 10.9 20 Sudoeste 84 Oeste 0.2 823.8 0.9 68
2019-10-12 22:00:00 12.7 24 Sur 53 Sudeste 0.2 823.3 0.4 58
2019-10-12 21:00:00 12.8 17 Sur 47 Sur 0 823.5 0.6 60
2019-10-12 20:00:00 13.6 18 Sur 51 Sudoeste 0 822.9 -0.1 65
2019-10-12 19:00:00 13.9 14 Sudoeste 52 Sudoeste 0 822.9 -0.4 61
2019-10-12 18:00:00 14.4 27 Sudoeste 61 Sudoeste 0 822.9 -0.8 55
2019-10-12 17:00:00 15.2 19 Sur 46 Sudoeste 0 823 -1.1 56
2019-10-12 16:00:00 15.2 20 Sudoeste 49 Sudoeste 0 823.3 -1 58
2019-10-12 15:00:00 17.8 24 Sur 47 Sur 0 823.7 -0.6 47
2019-10-12 14:00:00 16.8 28 Sur 54 Sudoeste 0 824.1 -0.2 45
2019-10-12 13:00:00 17.7 21 Sur 46 Sudoeste 0 824.3 0.1 42
2019-10-12 12:00:00 15.2 11 Norte 52 Sudoeste 0 824.3 0.5 49
2019-10-12 11:00:00 13.9 16 Oeste 45 Oeste 0 824.3 0.7 58
2019-10-12 10:00:00 13.4 19 Sur 40 Sur 0 824.2 0.7 62
2019-10-12 09:00:00 13.4 20 Sur 43 Sur 0 823.8 0.3 63
2019-10-12 08:00:00 13.5 19 Sur 44 Sudoeste 0 823.6 0 63
2019-10-12 07:00:00 13.3 26 Sur 48 Sur 0 823.5 -0.4 65
2019-10-12 06:00:00 13.7 31 Sur 53 Sur 0 823.5 -1 62
2019-10-12 05:00:00 13.1 31 Sur 53 Sur 0 823.6 -1.2 72
2019-10-12 04:00:00 13.4 24 Sur 55 Sudeste 0 823.9 -1.3 75
2019-10-12 03:00:00 13.7 20 Sur 43 Sudoeste 0 824.5 -0.8 78
2019-10-12 02:00:00 13.9 20 Sur 49 Sur 0 824.8 -0.5 75
2019-10-12 01:00:00 13.9 24 Sur 49 Sur 0 825.2 0.1 73
2019-10-12 00:00:00 14.1 26 Sur 55 Sudoeste 0 825.3 0.4 75
2019-10-11 23:00:00 13.8 28 Sur 49 Sur 0 825.3 0.8 79
2019-10-11 22:00:00 14 15 Sudoeste 49 Sudoeste 0 825.1 0.2 79
2019-10-11 21:00:00 14.1 19 Sudoeste 60 Sudoeste 0 824.9 -0.2 76
2019-10-11 20:00:00 14.2 9 Nordeste 53 Sudoeste 0 824.5 -0.8 71
2019-10-11 19:00:00 15.5 14 Sudoeste 42 Sudoeste 0 824.9 -0.9 63
2019-10-11 18:00:00 17.8 12 Oeste 38 Oeste 0 825.1 -1 55
2019-10-11 17:00:00 19.2 18 Sudoeste 41 Sudoeste 0 825.3 -1.6 49
2019-10-11 16:00:00 19.4 14 Sudoeste 41 Sur 0 825.8 -1.6 51
2019-10-11 15:00:00 20.4 18 Sudoeste 36 Sudoeste 0 826.1 -1.3 47
2019-10-11 14:00:00 20.1 14 Sudoeste 40 Sudoeste 0 826.9 -0.5 49
2019-10-11 13:00:00 19.2 17 Sudoeste 38 Sur 0 827.4 0.3 54
2019-10-11 12:00:00 18.5 19 Sur 34 Sur 0 827.4 0.9 51
2019-10-11 11:00:00 17.1 15 Sur 29 Sur 0 827.4 1.1 56
2019-10-11 10:00:00 13.9 18 Sur 27 Sur 0 827.1 0.9 68
2019-10-11 09:00:00 13.5 17 Sur 31 Sudoeste 0 826.5 0.5 70
2019-10-11 08:00:00 13.9 18 Sur 31 Sur 0 826.3 0.2 65
2019-10-11 07:00:00 14 23 Sur 40 Sur 0 826.2 0.1 64
2019-10-11 06:00:00 14.3 23 Sur 38 Sur 0 826 -0.4 61
2019-10-11 05:00:00 14.3 26 Sur 44 Sur 0 826.1 -0.3 61
2019-10-11 04:00:00 14.4 30 Sur 52 Sur 0 826.1 -0.6 57
2019-10-11 03:00:00 14.2 33 Sur 54 Sur 0 826.4 -0.3 59
2019-10-11 02:00:00 13.1 34 Sur 47 Sur 0 826.4 -0.1 66
2019-10-11 01:00:00 14.8 25 Sur 41 Sudoeste 0 826.7 0.2 46
2019-10-11 00:00:00 14.7 29 Sur 41 Sur 0 826.7 0.4 48
2019-10-10 23:00:00 14.4 29 Sur 41 Sur 0 826.5 0.4 58
2019-10-10 22:00:00 14.4 24 Sur 32 Sur 0 826.5 0.5 56
2019-10-10 21:00:00 12.6 18 Sur 25 Sur 0 826.3 0.3 70
2019-10-10 20:00:00 12.9 18 Sur 26 Sur 0 826.1 0.2 71
2019-10-10 19:00:00 15 4 Sur 12 Noroeste 0 826 -0.1 61
2019-10-10 18:00:00 18 5 Norte 11 Noroeste 0 826 -0.1 48
2019-10-10 17:00:00 18.7 4 Nordeste 18 Norte 0 825.9 -0.7 48
2019-10-10 16:00:00 18.7 8 Noroeste 19 Norte 0 826.1 -0.6 48
2019-10-10 15:00:00 19.6 7 Nordeste 16 Norte 0 826.1 -0.5 47
2019-10-10 14:00:00 17.9 7 Norte 16 Nordeste 0 826.6 0.1 48
2019-10-10 13:00:00 18 5 Nordeste 22 Sur 0 826.7 0.5 51
2019-10-10 12:00:00 16.3 7 Nordeste 29 Sur 0 826.6 0.9 51
2019-10-10 11:00:00 15.3 17 Sur 25 Sur 0 826.5 1.4 50
2019-10-10 10:00:00 10.8 5 Sudoeste 13 Sur 0 826.2 1 67
2019-10-10 09:00:00 10.2 4 Nordeste 17 Sudoeste 0 825.7 0.4 61
2019-10-10 08:00:00 11.7 15 Sur 29 Sur 0 825.1 -0.1 54
2019-10-10 07:00:00 11.6 15 Sur 24 Sur 0 825.2 -0.1 66
2019-10-10 06:00:00 9.6 5 Sudoeste 13 Sudoeste 0 825.3 -0.3 66
2019-10-10 05:00:00 9.8 4 Sudeste 14 Sudoeste 0 825.2 -0.5 58
2019-10-10 04:00:00 10.1 13 Sur 18 Sur 0 825.3 -0.6 53
2019-10-10 03:00:00 10.1 11 Sudoeste 16 Sudoeste 0 825.6 0 63
2019-10-10 02:00:00 10.8 6 Oeste 17 Sudoeste 0 825.7 0.2 59
2019-10-10 01:00:00 9.3 2 Este 7 Nordeste 0 825.9 0.6 66
2019-10-10 00:00:00 11.4 6 Noroeste 13 Noroeste 0 825.6 0.4 55
2019-10-09 23:00:00 11 3 Sur 22 Sudeste 0 825.5 0.6 55
2019-10-09 22:00:00 11.2 4 Sudoeste 15 Sur 0 825.3 0.5 52
2019-10-09 21:00:00 8.1 2 Sudeste 9 Nordeste 0 825.2 0.6 76
2019-10-09 20:00:00 10.5 3 Oeste 10 Oeste 0 824.9 0.1 65
2019-10-09 19:00:00 12.8 3 Nordeste 9 Noroeste 0 824.8 -0.2 59
2019-10-09 18:00:00 17.4 5 Oeste 18 Oeste 0 824.6 -0.4 41
2019-10-09 17:00:00 17 5 Norte 19 Oeste 0 824.8 -0.3 43
2019-10-09 16:00:00 17.3 7 Noroeste 18 Norte 0 825 -0.3 46
2019-10-09 15:00:00 18.7 5 Norte 22 Norte 0 825 -0.2 47
2019-10-09 14:00:00 16.6 8 Nordeste 18 Nordeste 0 825.1 -0.2 57
2019-10-09 13:00:00 15.4 5 Nordeste 19 Nordeste 0 825.3 0.2 67
2019-10-09 12:00:00 16.7 6 Sudoeste 20 Sur 0 825.2 1.1 46
2019-10-09 11:00:00 11.1 6 Sudoeste 20 Sur 0 825.3 0.7 84
2019-10-09 10:00:00 10 6 Sudoeste 25 Sur 0 825.1 0.5 94
2019-10-09 09:00:00 10.5 14 Sur 33 Sur 0 824.1 0.3 94
2019-10-09 08:00:00 10.1 4 Noroeste 27 Noroeste 0 824.6 0.4 95
2019-10-09 07:00:00 10.5 13 Sur 44 Sur 0 824.6 0.1 90
2019-10-09 06:00:00 15 26 Sur 50 Sur 0 823.8 -1.3 46
2019-10-09 05:00:00 12.6 13 Sur 30 Sur 0 824.2 -0.8 79
2019-10-09 04:00:00 13.2 10 Sudoeste 32 Sur 0 824.5 -1 76
2019-10-09 03:00:00 12.4 7 Sur 31 Sudoeste 0 825.1 -0.7 77
2019-10-09 02:00:00 13.3 18 Sur 28 Sudoeste 0 825 -0.8 70
2019-10-09 01:00:00 13.5 15 Sudoeste 29 Sur 0 825.5 -0.2 73
2019-10-09 00:00:00 14.3 6 Sudeste 14 Sur 0 825.8 0.1 59
2019-10-08 23:00:00 14 8 Sudeste 18 Nordeste 0 825.8 0.4 56
2019-10-08 22:00:00 15.7 4 Norte 18 Sudeste 0 825.7 0.5 48
2019-10-08 21:00:00 16 11 Sudeste 20 Sudeste 0 825.7 0.3 45
2019-10-08 20:00:00 16.1 8 Sudeste 20 Sudoeste 0 825.4 -0.1 49
2019-10-08 19:00:00 18.1 8 Noroeste 19 Noroeste 0 825.2 -0.5 43
2019-10-08 18:00:00 20.3 6 Nordeste 25 Noroeste 0 825.4 -0.5 37
2019-10-08 17:00:00 22 6 Noroeste 27 Norte 0 825.5 -0.7 34
2019-10-08 16:00:00 20.9 9 Norte 26 Noroeste 0 825.7 -1 36
2019-10-08 15:00:00 23.1 6 Sur 17 Sur 0 825.9 -1.1 31
2019-10-08 14:00:00 23.2 6 Sudoeste 15 Oeste 0 826.2 -0.6 31
2019-10-08 13:00:00 21 6 Oeste 13 Noroeste 0 826.7 0.1 33
2019-10-08 12:00:00 21.1 4 Este 14 Sudoeste 0 827 0.4 33
2019-10-08 11:00:00 20.1 8 Sur 14 Sur 0 826.8 0.3 34
2019-10-08 10:00:00 14.1 5 Este 16 Sudoeste 0 826.6 0.3 45
2019-10-08 09:00:00 13.6 6 Sudoeste 15 Sudoeste 0 826.6 0.5 43
2019-10-08 08:00:00 11.7 4 Sur 9 Sur 0 826.5 0.1 57
2019-10-08 07:00:00 11.8 3 Sudoeste 12 Sur 0 826.3 -0.4 56
2019-10-08 06:00:00 11.8 11 Sur 16 Sur 0 826.1 -1.2 51
2019-10-08 05:00:00 12.3 11 Sur 16 Sur 0 826.4 -0.7 52
2019-10-08 04:00:00 12.4 10 Sur 16 Sur 0 826.7 -0.6 58
2019-10-08 03:00:00 12.8 9 Sur 15 Sur 0 827.3 -0.2 58
2019-10-08 02:00:00 12.7 11 Sur 17 Sur 0 827.1 -0.6 54
2019-10-08 01:00:00 12.8 9 Sudeste 20 Sur 0 827.3 -0.2 51
2019-10-08 00:00:00 12.1 7 Sur 15 Sur 0 827.5 0.1 57
2019-10-07 23:00:00 11.1 4 Sur 15 Sudeste 0 827.7 0.6 60
2019-10-07 22:00:00 11.1 6 Sur 13 Sur 0 827.5 0.6 65
2019-10-07 21:00:00 11.3 9 Sur 13 Sur 0 827.4 0.5 65
2019-10-07 20:00:00 12.3 5 Sudeste 13 Norte 0 827.1 0.2 61
2019-10-07 19:00:00 14.7 6 Nordeste 21 Nordeste 0 826.9 0 55
2019-10-07 18:00:00 16.8 10 Norte 28 Norte 0 826.9 -0.1 48
2019-10-07 17:00:00 17.6 16 Norte 29 Norte 0 826.9 -0.2 45
2019-10-07 16:00:00 18 13 Norte 32 Norte 0 826.9 -0.5 40
2019-10-07 15:00:00 17.5 11 Norte 26 Norte 0 827 -0.3 37
2019-10-07 14:00:00 17.2 11 Nordeste 20 Nordeste 0 827.1 -0.1 37
2019-10-07 13:00:00 17.2 6 Noroeste 15 Norte 0 827.4 0.5 30
2019-10-07 12:00:00 17.5 3 Sudoeste 13 Nordeste 0 827.3 0.8 27
2019-10-07 11:00:00 13.5 8 Sudeste 12 Sudeste 0 827.2 0.9 34
2019-10-07 10:00:00 10.8 6 Este 17 Sudeste 0 826.9 1 36
2019-10-07 09:00:00 10.4 4 Sudoeste 17 Sudoeste 0 826.5 0.9 30
2019-10-07 08:00:00 9.7 7 Sudoeste 19 Sur 0 826.3 0.5 43
2019-10-07 07:00:00 9.3 10 Sur 19 Sur 0 825.9 0.1 64
2019-10-07 06:00:00 9.2 12 Sudoeste 21 Sudoeste 0 825.6 -1.2 66
2019-10-07 05:00:00 9.1 5 Sudoeste 17 Sudoeste 0 825.8 -0.8 68
2019-10-07 04:00:00 10.1 5 Sudeste 22 Oeste 0 825.8 -1 63
2019-10-07 03:00:00 11.2 7 Noroeste 27 Oeste 0 826.8 -0.3 55
2019-10-07 02:00:00 11.4 5 Sudeste 16 Oeste 0 826.6 -0.6 55
2019-10-07 01:00:00 11.4 6 Norte 18 Noroeste 0 826.8 -0.2 47
2019-10-07 00:00:00 10.5 4 Sur 15 Noroeste 0 827.1 0.6 59
2019-10-06 23:00:00 10.3 3 Sur 15 Norte 0 827.2 0.8 61
2019-10-06 22:00:00 10.8 5 Nordeste 23 Oeste 0 827 0.6 60
2019-10-06 21:00:00 11.5 6 Sur 23 Sudoeste 0 826.5 0.5 56
2019-10-06 20:00:00 12.7 8 Sudoeste 28 Noroeste 0 826.4 0.3 54
2019-10-06 19:00:00 14 12 Noroeste 30 Noroeste 0 826.4 -0.1 47
2019-10-06 18:00:00 15.5 11 Norte 26 Noroeste 0 826 -0.7 38
2019-10-06 17:00:00 15.8 11 Noroeste 24 Norte 0 826.1 -0.9 38
2019-10-06 16:00:00 18.4 8 Noroeste 25 Noroeste 0 826.5 -0.5 34
2019-10-06 15:00:00 17.7 8 Noroeste 21 Norte 0 826.7 -0.3 43
2019-10-06 14:00:00 17 9 Oeste 18 Noroeste 0 827 0.4 43
2019-10-06 13:00:00 18.4 4 Sur 15 Oeste 0 827 1 36
2019-10-06 12:00:00 15.4 9 Norte 20 Sur 0 827 1.2 50
2019-10-06 11:00:00 16.1 9 Sudoeste 22 Sudoeste 0 826.6 1.4 26
2019-10-06 10:00:00 10.5 13 Sudoeste 23 Sudoeste 0 826 1.4 69
2019-10-06 09:00:00 10.5 16 Sudoeste 24 Sudoeste 0 825.8 0.9 51
2019-10-06 08:00:00 8.4 15 Sudoeste 21 Sur 0 825.2 0.7 44
2019-10-06 07:00:00 10.4 10 Oeste 28 Sudoeste 0 824.6 -0.3 38
2019-10-06 06:00:00 8.8 14 Sudoeste 28 Sudoeste 0 824.9 0 72
2019-10-06 05:00:00 8.8 15 Sur 20 Sur 0 824.5 -0.8 75
2019-10-06 04:00:00 8.7 14 Sur 21 Sur 0 824.9 -0.6 75
2019-10-06 03:00:00 9.9 6 Sudoeste 21 Sur 0 824.9 -0.4 69
2019-10-06 02:00:00 10 8 Sur 19 Noroeste 0 825.3 -0.1 69
2019-10-06 01:00:00 11.5 5 Oeste 18 Oeste 0 825.5 0.1 64
2019-10-06 00:00:00 11.2 9 Sur 19 Sur 0 825.3 0.3 62
2019-10-05 23:00:00 10.7 11 Sur 20 Sudoeste 0 825.4 0.7 66
2019-10-05 22:00:00 12.2 8 Sudeste 17 Sur 0 825.4 0.9 59
2019-10-05 21:00:00 12.1 5 Sudeste 19 Noroeste 0 825 1 59
2019-10-05 20:00:00 14.3 9 Noroeste 22 Noroeste 0 824.7 0.8 47
2019-10-05 19:00:00 15.4 5 Norte 20 Norte 0 824.5 0.5 41
2019-10-05 18:00:00 18.6 5 Noroeste 19 Norte 0 824 -0.2 37
2019-10-05 17:00:00 18.7 8 Noroeste 19 Norte 0 823.9 -0.5 48
2019-10-05 16:00:00 18.2 9 Noroeste 17 Norte 0 824 -0.3 51
2019-10-05 15:00:00 18.2 8 Norte 15 Norte 0 824.2 0 51
2019-10-05 14:00:00 18.1 8 Norte 18 Norte 0 824.4 0.3 54
2019-10-05 13:00:00 17 6 Norte 14 Noroeste 0 824.3 0.6 56
2019-10-05 12:00:00 17.8 4 Sudeste 8 Sudeste 0 824.2 0.8 50
2019-10-05 11:00:00 14.7 3 Sudeste 6 Sudeste 0 824.1 1.1 50
2019-10-05 10:00:00 8.5 3 Sur 16 Sudeste 0 823.7 0.6 64
2019-10-05 09:00:00 8.1 4 Sur 14 Sur 0 823.4 0.1 69
2019-10-05 08:00:00 7.7 8 Sur 15 Sur 0 823 -0.4 78
2019-10-05 07:00:00 8.7 8 Sur 12 Sur 0 823.1 -0.5 77
2019-10-05 06:00:00 9.3 5 Sudoeste 13 Sudoeste 0 823.3 -0.7 80
2019-10-05 05:00:00 9.4 8 Sur 14 Sudoeste 0 823.4 -0.6 79
2019-10-05 04:00:00 9.3 8 Sudoeste 16 Sudoeste 0 823.6 -0.7 64
2019-10-05 03:00:00 9.5 8 Sur 19 Sudoeste 0 824 -0.4 70
2019-10-05 02:00:00 9.1 9 Sur 14 Sur 0 824 -0.4 84
2019-10-05 01:00:00 9.9 9 Sur 15 Sudoeste 0 824.3 -0.1 84
2019-10-05 00:00:00 11.3 5 Oeste 22 Sur 0 824.4 0.3 82
2019-10-04 23:00:00 11.3 8 Sur 20 Sur 0 824.4 0.4 82
2019-10-04 22:00:00 10.7 9 Sur 19 Sur 0 824.4 0.6 84
2019-10-04 21:00:00 12.2 5 Norte 20 Sudoeste 0 824.1 0.4 75
2019-10-04 20:00:00 13.1 5 Oeste 15 Sudoeste 0 824 0.2 68
2019-10-04 19:00:00 14.4 5 Norte 22 Noroeste 0 823.8 -0.5 63
2019-10-04 18:00:00 16.7 8 Noroeste 26 Oeste 0 823.7 -0.9 52
2019-10-04 17:00:00 17.8 12 Oeste 30 Oeste 0 823.8 -1.2 46
2019-10-04 16:00:00 17.8 11 Noroeste 27 Noroeste 0 824.3 -0.5 52
2019-10-04 15:00:00 19.1 9 Oeste 21 Noroeste 0 824.6 -0.5 50
2019-10-04 14:00:00 19 7 Noroeste 20 Noroeste 0 825 -0.1 49
2019-10-04 13:00:00 18.1 8 Norte 18 Norte 0 824.8 -0.2 46
2019-10-04 12:00:00 20.2 4 Noroeste 22 Sur 0 825.1 0.4 29
2019-10-04 11:00:00 17.9 2 Sur 14 Sur 0 825.1 0.6 32
2019-10-04 10:00:00 10.9 4 Sudeste 12 Sur 0 825 0.6 49
2019-10-04 09:00:00 12 4 Norte 13 Sudoeste 0 824.7 0 44
2019-10-04 08:00:00 10.3 3 Sudoeste 9 Sur 0 824.5 -0.6 52
2019-10-04 07:00:00 11.2 9 Sudoeste 18 Sudoeste 0 824.4 -0.9 50
2019-10-04 06:00:00 11.2 12 Sudoeste 20 Sudoeste 0 824.7 -1.1 46
2019-10-04 05:00:00 9.5 13 Sudoeste 20 Sudoeste 0 825.1 -0.9 55
2019-10-04 04:00:00 9.9 13 Sur 27 Sur 0 825.3 -0.9 54
2019-10-04 03:00:00 10.4 14 Sur 26 Sur 0 825.8 -0.4 53
2019-10-04 02:00:00 10.3 8 Sur 16 Sudoeste 0 826 0 54
2019-10-04 01:00:00 10 10 Sur 23 Sudoeste 0 826.2 0.4 51
2019-10-04 00:00:00 10.6 13 Sur 21 Sur 0 826.2 0.5 50
2019-10-03 23:00:00 9.8 11 Sur 16 Sur 0 826 0.5 56
2019-10-03 22:00:00 10 8 Sur 13 Sur 0 825.8 0.4 55
2019-10-03 21:00:00 10.8 5 Sudoeste 14 Sudoeste 0 825.7 0.4 51
2019-10-03 20:00:00 12.1 6 Sudeste 25 Norte 0 825.5 0 46
2019-10-03 19:00:00 13.7 13 Noroeste 27 Noroeste 0 825.4 -0.2 41
2019-10-03 18:00:00 15.1 13 Noroeste 28 Noroeste 0 825.3 -0.2 38
2019-10-03 17:00:00 15.6 11 Norte 23 Noroeste 0 825.5 0 41
2019-10-03 16:00:00 16.1 9 Noroeste 23 Noroeste 0 825.6 0.2 39
2019-10-03 15:00:00 17.2 7 Oeste 19 Oeste 0 825.5 -0.2 38
2019-10-03 14:00:00 15.8 14 Oeste 20 Oeste 0 825.5 0 37
2019-10-03 13:00:00 17.4 8 Sur 16 Sudeste 0 825.4 -0.1 23
2019-10-03 12:00:00 14.1 7 Oeste 18 Oeste 0 825.7 0.8 51
2019-10-03 11:00:00 12.6 4 Sur 8 Sudeste 0 825.5 1 56
2019-10-03 10:00:00 8.5 6 Sudoeste 11 Sudoeste 0 825.5 1.2 67
2019-10-03 09:00:00 6.5 2 Sur 9 Sur 0 824.9 0.8 69
2019-10-03 08:00:00 5.9 4 Sudeste 9 Sudoeste 0 824.5 0.3 63
2019-10-03 07:00:00 6.1 4 Sudoeste 8 Sudoeste 0 824.3 0 67
2019-10-03 06:00:00 5.8 6 Sur 10 Sudoeste 0 824.1 -0.9 76
2019-10-03 05:00:00 5.5 4 Sudoeste 12 Sur 0 824.2 -0.8 77
2019-10-03 04:00:00 6.4 8 Sudeste 16 Sur 0 824.3 -1 70
2019-10-03 03:00:00 6.6 9 Sur 21 Sur 0 825 -0.6 69
2019-10-03 02:00:00 6.8 4 Sur 18 Sur 0 825 -0.5 65
2019-10-03 01:00:00 6.5 6 Sur 12 Sur 0 825.3 -0.1 74
2019-10-03 00:00:00 5.9 4 Sur 12 Sudeste 0 825.6 0.4 81
2019-10-02 23:00:00 5.8 9 Sur 13 Sur 0 825.5 0.6 83
2019-10-02 22:00:00 6.2 2 Sur 15 Norte 0 825.4 0.7 79
2019-10-02 21:00:00 7.4 3 Norte 19 Nordeste 0 825.2 0.8 73
2019-10-02 20:00:00 8.1 8 Norte 19 Norte 0 824.9 0.5 73
2019-10-02 19:00:00 8.9 14 Norte 26 Norte 0 824.7 0.4 69
2019-10-02 18:00:00 11.3 12 Norte 28 Nordeste 0 824.4 0.3 60
2019-10-02 17:00:00 11.6 15 Norte 32 Nordeste 0 824.4 0.3 62
2019-10-02 16:00:00 11.4 13 Norte 35 Norte 0 824.3 0.3 67
2019-10-02 15:00:00 9.1 15 Norte 30 Norte 0 824.1 0.2 77
2019-10-02 14:00:00 9.7 11 Norte 30 Norte 0 824.1 0.6 74
2019-10-02 13:00:00 8.2 9 Norte 21 Norte 0 824 1.2 82
2019-10-02 12:00:00 8.3 5 Norte 22 Nordeste 0 823.9 1.7 83
2019-10-02 11:00:00 6.1 5 Sur 16 Oeste 0 823.5 1.5 97
2019-10-02 10:00:00 3.9 6 Noroeste 25 Norte 0 822.8 1 98
2019-10-02 09:00:00 3.9 6 Nordeste 24 Noroeste 0 822.2 0.4 98
2019-10-02 08:00:00 4.3 7 Este 35 Noroeste 0 822 0.1 98
2019-10-02 07:00:00 4.8 10 Norte 30 Noroeste 0 821.8 -0.2 98
2019-10-02 06:00:00 5.1 12 Norte 40 Norte 0 821.8 -0.7 97
2019-10-02 05:00:00 5.4 13 Norte 48 Norte 0 821.9 -0.7 97
2019-10-02 04:00:00 6 15 Norte 35 Norte 0 822 -0.9 96
2019-10-02 03:00:00 6.5 11 Nordeste 35 Norte 0 822.5 -0.5 94
2019-10-02 02:00:00 7.3 14 Nordeste 45 Norte 0 822.6 -0.3 87
2019-10-02 01:00:00 8.2 13 Nordeste 43 Norte 0 822.9 0.6 81
2019-10-02 00:00:00 8.8 13 Nordeste 53 Norte 0 823 1 76
2019-10-01 23:00:00 10 19 Nordeste 46 Norte 0 822.9 1.1 73
2019-10-01 22:00:00 10.4 17 Este 39 Sur 0 822.3 0.4 66
2019-10-01 21:00:00 10.4 15 Sudeste 33 Sur 0 822 0.3 72
2019-10-01 20:00:00 10.7 12 Nordeste 50 Noroeste 0 821.8 0.2 71
2019-10-01 19:00:00 12.1 18 Norte 51 Norte 0 821.9 0 70
2019-10-01 18:00:00 13.6 21 Norte 50 Norte 0 821.7 -0.5 66
2019-10-01 17:00:00 14.2 11 Este 40 Norte 0 821.6 -0.9 65
2019-10-01 16:00:00 15 12 Noroeste 33 Noroeste 0 821.9 -0.6 58
2019-10-01 15:00:00 12.7 10 Oeste 34 Norte 0 822.2 -0.6 72
2019-10-01 14:00:00 13.1 8 Oeste 24 Sur 0 822.5 -0.2 74
2019-10-01 13:00:00 12.3 9 Sur 20 Sudoeste 0 822.5 0.6 79
2019-10-01 12:00:00 12.5 7 Oeste 21 Sur 0 822.8 1.3 81
2019-10-01 11:00:00 12.8 8 Oeste 21 Sudoeste 0 822.7 0.8 76
2019-10-01 10:00:00 11.3 9 Sudoeste 38 Sudoeste 0 821.9 0.5 78
2019-10-01 09:00:00 11.7 13 Sur 34 Sudoeste 0 821.5 0 61
2019-10-01 08:00:00 10.6 10 Sur 28 Sur 0 821.9 0.1 65
2019-10-01 07:00:00 13.3 14 Sur 33 Sur 0 821.4 -1 44
2019-10-01 06:00:00 13.5 15 Sur 30 Sudoeste 0 821.5 -1.8 46
2019-10-01 05:00:00 12.8 15 Sur 32 Sur 0 821.8 -1.8 55
2019-10-01 04:00:00 13.5 9 Sudeste 37 Sur 0 822.4 -1.5 37
2019-10-01 03:00:00 13.7 7 Sudeste 28 Sudoeste 0 823.3 -0.7 37
2019-10-01 02:00:00 13.8 10 Sur 28 Sudeste 0 823.6 -0.6 32
2019-10-01 01:00:00 13.8 9 Sudeste 23 Oeste 0 823.9 -0.3 31
2019-10-01 00:00:00 14.2 13 Sur 23 Sur 0 824 0 46
2019-09-30 23:00:00 14.2 12 Sudoeste 25 Sur 0 824.2 0.2 43
2019-09-30 22:00:00 14.3 20 Sur 34 Sur 0 824.2 0.2 34
2019-09-30 21:00:00 15.7 21 Sur 31 Sur 0 824 -0.1 30
2019-09-30 20:00:00 15.8 20 Sur 29 Sur 0 824 -0.5 32
2019-09-30 19:00:00 17.1 21 Sur 34 Sur 0 824 -0.8 33
2019-09-30 18:00:00 20.8 6 Sudoeste 23 Sur 0 824.1 -1 28
2019-09-30 17:00:00 21.1 7 Oeste 26 Sur 0 824.5 -1.2 29
2019-09-30 16:00:00 23 8 Oeste 21 Norte 0 824.8 -1.1 26
2019-09-30 15:00:00 21.1 8 Norte 24 Nordeste 0 825.1 -0.9 30
2019-09-30 14:00:00 19.9 9 Norte 20 Norte 0 825.7 0 33
2019-09-30 13:00:00 19.9 6 Norte 14 Nordeste 0 825.9 0.3 37
2019-09-30 12:00:00 20.9 6 Sur 27 Sudeste 0 826 0.7 20
2019-09-30 11:00:00 18.1 15 Sur 32 Sur 0 825.7 0.5 24
2019-09-30 10:00:00 14.3 22 Sur 30 Sur 0 825.6 0.7 35
2019-09-30 09:00:00 14 22 Sur 32 Sur 0 825.3 0.1 35
2019-09-30 08:00:00 13.9 17 Sur 32 Sur 0 825.2 -0.3 37
2019-09-30 07:00:00 14.1 19 Sur 29 Sur 0 824.9 -1 38
2019-09-30 06:00:00 13.1 6 Sur 18 Sur 0 825.2 -1.1 44
2019-09-30 05:00:00 11.5 10 Sudoeste 15 Sudoeste 0 825.5 -1.1 53
2019-09-30 04:00:00 12.1 10 Sudoeste 21 Sur 0 825.9 -0.9 54
2019-09-30 03:00:00 10.8 10 Sur 21 Sur 0 826.3 -0.5 61
2019-09-30 02:00:00 12 14 Sur 22 Sur 0 826.6 -0.1 62
2019-09-30 01:00:00 13.1 10 Sur 22 Noroeste 0 826.8 0.2 45
2019-09-30 00:00:00 14.5 6 Norte 23 Oeste 0 826.8 0.6 29
2019-09-29 23:00:00 14.4 6 Nordeste 21 Sur 0 826.7 0.7 25
2019-09-29 22:00:00 14.6 11 Sur 31 Sur 0 826.6 0.7 33
2019-09-29 21:00:00 15.2 16 Sur 36 Sudoeste 0 826.2 0.2 30
2019-09-29 20:00:00 15.7 10 Sur 30 Oeste 0 826 -0.2 29
2019-09-29 19:00:00 17.9 7 Sudeste 27 Noroeste 0 825.9 -0.5 27
2019-09-29 18:00:00 19 11 Oeste 37 Oeste 0 826 -0.6 24
2019-09-29 17:00:00 19.9 9 Noroeste 35 Norte 0 826.2 -0.8 22
2019-09-29 16:00:00 20 11 Norte 31 Noroeste 0 826.4 -0.5 25
2019-09-29 15:00:00 21.1 9 Noroeste 38 Norte 0 826.6 -0.2 26
2019-09-29 14:00:00 19.8 9 Norte 26 Noroeste 0 827 0.5 30
2019-09-29 13:00:00 20.4 11 Sudoeste 34 Noroeste 0 826.9 0.9 29
2019-09-29 12:00:00 18.3 8 Oeste 32 Sur 0 826.8 1.1 30
2019-09-29 11:00:00 17.2 14 Sur 32 Sudoeste 0 826.5 0.9 29
2019-09-29 10:00:00 14.1 17 Sur 37 Sur 0 826 0.7 36
2019-09-29 09:00:00 14.2 16 Sur 31 Sur 0 825.7 0.1 29
2019-09-29 08:00:00 14.4 18 Sur 42 Sudoeste 0 825.6 0 29
2019-09-29 07:00:00 14 17 Sur 32 Sur 0 825.3 -0.7 29
2019-09-29 06:00:00 13.7 10 Sur 21 Sur 0 825.6 -0.7 36
2019-09-29 05:00:00 13.3 11 Sudoeste 23 Sudoeste 0 825.6 -0.7 41
2019-09-29 04:00:00 12.1 16 Sur 25 Sur 0 826 -0.6 44
2019-09-29 03:00:00 13.7 21 Sur 29 Sur 0 826.3 -0.5 34
2019-09-29 02:00:00 14.6 15 Sur 31 Sur 0 826.3 -0.6 36
2019-09-29 01:00:00 14.1 14 Sur 26 Sur 0 826.6 -0.2 33
2019-09-29 00:00:00 13.3 12 Sur 28 Sudoeste 0 826.8 0 35
2019-09-28 23:00:00 13.6 18 Sur 32 Sur 0 826.9 0.4 39
2019-09-28 22:00:00 14.2 22 Sur 34 Sur 0 826.8 0.1 38
2019-09-28 21:00:00 14.4 24 Sur 29 Sur 0 826.8 0.1 43
2019-09-28 20:00:00 14.5 19 Sur 24 Sur 0 826.5 -0.3 51
2019-09-28 19:00:00 19.1 4 Noroeste 20 Norte 0 826.7 -0.3 26
2019-09-28 18:00:00 20 4 Noroeste 19 Oeste 0 826.7 -0.5 26
2019-09-28 17:00:00 20.6 7 Oeste 19 Norte 0 826.8 -0.8 31
2019-09-28 16:00:00 20.7 8 Noroeste 22 Norte 0 827 -0.7 35
2019-09-28 15:00:00 20.3 7 Nordeste 17 Norte 0 827.2 -0.4 39
2019-09-28 14:00:00 20.8 5 Nordeste 17 Norte 0 827.6 0.2 35
2019-09-28 13:00:00 18.8 6 Nordeste 12 Norte 0 827.7 0.8 47
2019-09-28 12:00:00 18.6 5 Noroeste 14 Sur 0 827.6 1.1 33
2019-09-28 11:00:00 18.4 6 Sudeste 50 Este 0 827.4 1.4 23
2019-09-28 10:00:00 13.4 6 Sur 27 Sur 0 826.9 0.9 29
2019-09-28 09:00:00 13.5 19 Sur 34 Sudoeste 0 826.5 0.3 27
2019-09-28 08:00:00 13.2 23 Sur 35 Sur 0 826 -0.3 30
2019-09-28 07:00:00 13 22 Sur 33 Sur 0 826 -0.2 28
2019-09-28 06:00:00 13.4 19 Sur 38 Sur 0 826.2 -0.6 27
2019-09-28 05:00:00 11.4 11 Sudeste 36 Sur 0 826.3 -0.9 64
2019-09-28 04:00:00 13.3 27 Sur 39 Sur 0 826.2 -1 34
2019-09-28 03:00:00 10.1 6 Sudoeste 18 Sudoeste 0 826.8 -0.4 78
2019-09-28 02:00:00 10.1 6 Sur 26 Sur 0 827.2 0 86
2019-09-28 01:00:00 10.2 10 Sur 27 Sudoeste 0 827.2 0.2 83
2019-09-28 00:00:00 11.6 14 Sur 33 Sur 0 827.2 0.5 54
2019-09-27 23:00:00 12.2 10 Sur 31 Sur 0 827.2 0.7 45
2019-09-27 22:00:00 12 13 Sur 26 Sudoeste 0 827 0.7 43
2019-09-27 21:00:00 11.9 13 Sudeste 20 Sur 0 826.7 0.4 38
2019-09-27 20:00:00 13.5 6 Nordeste 23 Sudoeste 0 826.5 0.3 34
2019-09-27 19:00:00 16.3 7 Sur 24 Norte 0 826.3 0.1 32
2019-09-27 18:00:00 16.9 10 Norte 35 Norte 0 826.3 -0.1 31
2019-09-27 17:00:00 17 15 Noroeste 32 Noroeste 0 826.2 -0.5 30
2019-09-27 16:00:00 19 13 Noroeste 37 Noroeste 0 826.2 -0.7 29
2019-09-27 15:00:00 19.5 10 Oeste 25 Sudoeste 0 826.4 -0.6 27
2019-09-27 14:00:00 18.5 11 Oeste 21 Noroeste 0 826.7 -0.1 28
2019-09-27 13:00:00 18.7 5 Oeste 14 Noroeste 0 826.9 0.5 26
2019-09-27 12:00:00 17.7 4 Sudoeste 19 Oeste 0 827 1 35
2019-09-27 11:00:00 16.2 8 Sur 18 Sudoeste 0 826.8 1 37
2019-09-27 10:00:00 10.9 10 Sur 17 Sudoeste 0 826.4 0.4 49
2019-09-27 09:00:00 9.9 14 Sur 23 Sur 0 826 0 45
2019-09-27 08:00:00 11.5 7 Sudeste 27 Sudoeste 0 825.8 -0.3 31
2019-09-27 07:00:00 11.2 8 Sudeste 28 Sur 0 826 -0.1 41
2019-09-27 06:00:00 12.1 12 Sur 31 Sudeste 0 826 -0.5 32
2019-09-27 05:00:00 12.2 9 Oeste 28 Sudoeste 0 826.1 -0.7 39
2019-09-27 04:00:00 11 5 Este 29 Sur 0 826.1 -0.9 46
2019-09-27 03:00:00 12.6 14 Sur 28 Sur 0 826.5 -0.5 39
2019-09-27 02:00:00 12.1 16 Sur 27 Sur 0 826.8 -0.3 41
2019-09-27 01:00:00 12.5 13 Sur 24 Sur 0 827 0 39
2019-09-27 00:00:00 12.7 15 Sur 24 Sur 0 827 0.5 38
2019-09-26 23:00:00 12.5 10 Sur 28 Sur 0 827.1 1 42
2019-09-26 22:00:00 13 14 Sur 24 Sudoeste 0 827 0.9 42
2019-09-26 21:00:00 13.6 12 Sur 21 Sur 0 826.5 0.4 53
2019-09-26 20:00:00 14.8 7 Este 17 Noroeste 0 826.1 0 54
2019-09-26 19:00:00 17.4 7 Nordeste 26 Noroeste 0 826.1 -0.2 43
2019-09-26 18:00:00 18.3 11 Noroeste 31 Noroeste 0 826.1 -0.1 40
2019-09-26 17:00:00 18.9 12 Oeste 30 Norte 0 826.1 -0.1 37
2019-09-26 16:00:00 20.3 10 Oeste 30 Noroeste 0 826.3 -0.1 33
2019-09-26 15:00:00 20.4 10 Sudoeste 23 Noroeste 0 826.2 -0.3 39
2019-09-26 14:00:00 20.1 6 Norte 23 Noroeste 0 826.2 0 40
2019-09-26 13:00:00 19.9 6 Oeste 21 Sudoeste 0 826.4 0.4 35
2019-09-26 12:00:00 18.2 8 Noroeste 26 Sudoeste 0 826.5 1.1 38
2019-09-26 11:00:00 16.9 8 Este 19 Sudoeste 0 826.2 0.9 37
2019-09-26 10:00:00 12.7 10 Sur 23 Sur 0 826 1.1 51
2019-09-26 09:00:00 12.7 13 Sudoeste 29 Sudoeste 0 825.4 0.5 48
2019-09-26 08:00:00 11.2 14 Sur 24 Sur 0 825.3 0.3 50
2019-09-26 07:00:00 11.9 15 Sur 31 Sur 0 824.9 -0.1 48
2019-09-26 06:00:00 9.2 4 Sudoeste 18 Oeste 0 824.9 -0.5 65
2019-09-26 05:00:00 9.2 9 Sudoeste 15 Sudoeste 0 825 -0.4 68
2019-09-26 04:00:00 10.2 13 Sudoeste 17 Sudoeste 0 825 -0.5 61
2019-09-26 03:00:00 9.7 9 Sudoeste 15 Sudoeste 0 825.4 0 61
2019-09-26 02:00:00 9.6 8 Sudoeste 15 Sudoeste 0 825.4 0.2 62
2019-09-26 01:00:00 9.9 11 Sudoeste 23 Sudoeste 0 825.5 0.4 61
2019-09-26 00:00:00 10.6 8 Sudoeste 24 Sudoeste 0 825.4 0.6 59
2019-09-25 23:00:00 9.6 15 Sudoeste 19 Sur 0 825.2 0.4 70
2019-09-25 22:00:00 9.9 14 Sudoeste 19 Sudoeste 0 825.1 0.6 70
2019-09-25 21:00:00 9.9 14 Oeste 18 Oeste 0 824.8 0.4 70
2019-09-25 20:00:00 10.1 3 Sur 10 Sudoeste 0 824.8 0.4 73
2019-09-25 19:00:00 11.8 4 Sudoeste 14 Oeste 0 824.5 0.1 61
2019-09-25 18:00:00 13.5 6 Oeste 16 Norte 0 824.4 -0.1 58
2019-09-25 17:00:00 12.9 9 Noroeste 18 Noroeste 0 824.4 -0.2 58
2019-09-25 16:00:00 15.2 9 Oeste 19 Oeste 0 824.4 -0.3 54
2019-09-25 15:00:00 14.8 9 Oeste 19 Oeste 0 824.5 -0.1 57
2019-09-25 14:00:00 13.7 7 Oeste 21 Oeste 0 824.6 0.5 60
2019-09-25 13:00:00 11.5 7 Oeste 17 Sur 0 824.7 1.2 67
2019-09-25 12:00:00 12.1 5 Sur 18 Sudoeste 0 824.6 1.5 63
2019-09-25 11:00:00 9.6 12 Sur 31 Sur 0 824.1 1.2 58
2019-09-25 10:00:00 5.4 16 Sur 31 Sur 0 823.5 0.6 98
2019-09-25 09:00:00 4.8 14 Sur 31 Sur 0 823.1 0.2 98
2019-09-25 08:00:00 4.7 9 Noroeste 23 Oeste 0 822.9 0 98
2019-09-25 07:00:00 5.2 10 Sudeste 28 Sudoeste 0 822.9 -0.2 98
2019-09-25 06:00:00 5.8 10 Este 36 Nordeste 0 822.9 -0.8 97
2019-09-25 05:00:00 5.9 12 Sur 41 Nordeste 0 822.9 -0.7 97
2019-09-25 04:00:00 6.8 10 Norte 40 Norte 0 823.1 -0.8 97
2019-09-25 03:00:00 7.1 15 Oeste 40 Oeste 0 823.7 -0.7 97
2019-09-25 02:00:00 7.9 14 Norte 40 Norte 0 823.6 -0.7 96
2019-09-25 01:00:00 9 14 Nordeste 49 Noroeste 0 823.9 -0.6 96
2019-09-25 00:00:00 10.1 15 Este 58 Noroeste 0 824.4 0 96
2019-09-24 23:00:00 10.6 14 Norte 44 Oeste 0 824.3 -0.1 95
2019-09-24 22:00:00 11 14 Este 46 Oeste 0 824.5 0.4 93
2019-09-24 21:00:00 11 17 Nordeste 48 Sur 0 824.4 0.1 90
2019-09-24 20:00:00 11.8 10 Nordeste 44 Sudoeste 2.6 824.4 -0.1 96
2019-09-24 19:00:00 12 10 Norte 40 Sudeste 0.4 824.1 -0.7 96
2019-09-24 18:00:00 12.1 10 Este 33 Noroeste 0.8 824.3 -0.6 95
2019-09-24 17:00:00 12.5 8 Oeste 28 Norte 0.2 824.5 -0.9 92
2019-09-24 16:00:00 13 9 Nordeste 47 Noroeste 0 824.8 -1 90
2019-09-24 15:00:00 13.6 7 Este 41 Sudeste 0.2 824.9 -1 88
2019-09-24 14:00:00 13.6 12 Nordeste 35 Noroeste 0 825.4 -0.4 86
2019-09-24 13:00:00 13.1 9 Noroeste 38 Sur 0 825.8 0.6 73
2019-09-24 12:00:00 13.5 13 Sudoeste 47 Noroeste 0 825.9 1 55
2019-09-24 11:00:00 14.1 13 Nordeste 51 Oeste 0 825.8 0.8 40
2019-09-24 10:00:00 11.8 13 Norte 53 Noroeste 0 825.2 0.6 35
2019-09-24 09:00:00 12 14 Este 47 Noroeste 0 824.9 0 25
2019-09-24 08:00:00 11.5 12 Noroeste 41 Noroeste 0 825 0.2 43
2019-09-24 07:00:00 12.5 14 Noroeste 40 Sudoeste 0 824.6 -0.5 37
2019-09-24 06:00:00 10 7 Noroeste 30 Noroeste 0 824.9 -1 65
2019-09-24 05:00:00 14.3 14 Sudeste 49 Sur 0 824.8 -1.3 28
2019-09-24 04:00:00 13.1 9 Sur 37 Sudoeste 0 825.1 -1.1 34
2019-09-24 03:00:00 11.4 9 Oeste 32 Sur 0 825.9 -0.6 58
2019-09-24 02:00:00 13.7 21 Sur 41 Sudoeste 0 826.1 -0.7 31
2019-09-24 01:00:00 13.6 18 Sudoeste 44 Sudoeste 0 826.2 -0.6 32
2019-09-24 00:00:00 12.4 19 Sur 40 Sudoeste 0 826.5 0.1 57
2019-09-23 23:00:00 12.8 16 Sur 36 Sudoeste 0 826.8 0.7 50
2019-09-23 22:00:00 12.7 13 Sur 43 Sudeste 0 826.8 0.8 47
2019-09-23 21:00:00 13.3 15 Sudeste 40 Sur 0 826.4 0.3 43
2019-09-23 20:00:00 12.3 9 Sudeste 20 Sudeste 0 826.1 0.1 55
2019-09-23 19:00:00 13.7 6 Oeste 22 Sudoeste 0 826 0 50
2019-09-23 18:00:00 14.6 5 Oeste 21 Noroeste 0 826.1 0.3 50
2019-09-23 17:00:00 14.1 7 Sudeste 22 Oeste 0 826 0 49
2019-09-23 16:00:00 15.6 6 Norte 14 Oeste 0 826 0.3 53
2019-09-23 15:00:00 15.7 5 Norte 17 Noroeste 0 825.8 -0.1 55
2019-09-23 14:00:00 16.6 4 Noroeste 17 Nordeste 0 826 0.6 52
2019-09-23 13:00:00 15.6 8 Oeste 17 Oeste 0 825.7 0.3 53
2019-09-23 12:00:00 12.6 5 Norte 19 Nordeste 0 825.9 1 59
2019-09-23 11:00:00 14.4 7 Este 26 Sudoeste 0 825.4 0.8 33
2019-09-23 10:00:00 9 9 Sur 32 Sudoeste 0 825.4 1.4 66
2019-09-23 09:00:00 8.4 11 Sudeste 28 Sur 0 824.9 0.9 72
2019-09-23 08:00:00 6.5 6 Sudoeste 21 Norte 0 824.6 0.7 79
2019-09-23 07:00:00 8.3 14 Sudoeste 32 Sur 0 824 0.5 69
2019-09-23 06:00:00 6.3 9 Sur 23 Sudoeste 0 824 0.2 74
2019-09-23 05:00:00 6.2 8 Sudeste 23 Sur 0 823.9 0.4 73
2019-09-23 04:00:00 6.4 8 Este 29 Sur 0 823.5 -0.3 76
2019-09-23 03:00:00 6.6 9 Noroeste 29 Noroeste 0 823.8 0.2 79
2019-09-23 02:00:00 6.4 12 Sudeste 21 Sur 0 823.5 -0.2 80
2019-09-23 01:00:00 6.6 7 Este 18 Sur 0 823.8 0.4 82
2019-09-23 00:00:00 7.1 5 Este 17 Noroeste 0 823.6 0.9 79
2019-09-22 23:00:00 7.4 9 Oeste 21 Oeste 0 823.7 1.5 78
2019-09-22 22:00:00 7.9 10 Noroeste 24 Noroeste 0 823.4 1.2 80
2019-09-22 21:00:00 7.8 8 Sudeste 19 Norte 0 822.7 1 81
2019-09-22 20:00:00 8.5 7 Oeste 19 Norte 0 822.2 0.6 79
2019-09-22 19:00:00 9.3 5 Nordeste 28 Norte 0 822.2 0.7 80
2019-09-22 18:00:00 10.1 6 Este 29 Norte 0 821.7 0.4 76
2019-09-22 17:00:00 11 6 Noroeste 28 Noroeste 0 821.6 0.4 72
2019-09-22 16:00:00 9.2 10 Norte 23 Norte 0 821.5 0.5 81
2019-09-22 15:00:00 8.4 6 Oeste 24 Norte 0 821.3 0.5 90
2019-09-22 14:00:00 7.6 7 Noroeste 23 Sur 0 821.2 0.7 96
2019-09-22 13:00:00 7.4 5 Sudoeste 27 Oeste 0 821 0.7 97
2019-09-22 12:00:00 6.7 10 Noroeste 34 Noroeste 0.2 820.8 1.2 97
2019-09-22 11:00:00 7 8 Sudoeste 22 Sudoeste 0.2 820.5 1.2 97
2019-09-22 10:00:00 6.5 7 Oeste 29 Sudoeste 0.2 820.3 1.4 97
2019-09-22 09:00:00 6.8 8 Sudeste 23 Sur 0.6 819.6 1 97
2019-09-22 08:00:00 6.3 5 Oeste 17 Noroeste 0.2 819.3 0.9 97
2019-09-22 07:00:00 7 4 Noroeste 15 Norte 0.4 818.9 0.5 97
2019-09-22 06:00:00 8.4 4 Noroeste 42 Sudoeste 2 818.6 0.1 97
2019-09-22 05:00:00 10 18 Sudoeste 51 Sudoeste 0.4 818.4 -0.1 97
2019-09-22 04:00:00 10 28 Sur 62 Sur 1.2 818.4 -0.1 97
2019-09-22 03:00:00 10 37 Sur 66 Sudoeste 0.4 818.5 -0.2 96
2019-09-22 02:00:00 10 38 Sur 64 Sur 0.2 818.5 -0.3 96
2019-09-22 01:00:00 9.7 44 Sur 73 Sudeste 0 818.5 -0.6 95
2019-09-22 00:00:00 9.8 42 Sur 72 Sudeste 0 818.7 -0.2 92
2019-09-21 23:00:00 10.1 41 Sur 72 Sur 0 818.8 -0.1 91
2019-09-21 22:00:00 10.1 41 Sur 67 Sur 0.2 819.1 0.1 96
2019-09-21 21:00:00 10.3 28 Sur 58 Sur 0.4 818.9 -0.1 96
2019-09-21 20:00:00 10.5 26 Sudoeste 58 Sudoeste 0.6 818.9 -0.2 94
2019-09-21 19:00:00 10.5 22 Sudoeste 58 Sur 0.6 819 -0.5 94
2019-09-21 18:00:00 10.5 28 Sur 60 Sudoeste 0.2 819 -0.8 93
2019-09-21 17:00:00 10.6 21 Sudoeste 53 Sudoeste 0.2 819.1 -0.8 90
2019-09-21 16:00:00 10.7 27 Sur 48 Sudoeste 0.4 819.5 -0.3 89
2019-09-21 15:00:00 10.7 13 Sudoeste 41 Sudoeste 0 819.8 0 89
2019-09-21 14:00:00 11.5 27 Sur 51 Sur 0 819.9 0.3 79
2019-09-21 13:00:00 11.5 32 Sur 50 Sur 0 819.8 0.1 77
2019-09-21 12:00:00 10.8 33 Sur 48 Sur 0 819.8 0.2 82
2019-09-21 11:00:00 9.9 36 Sur 57 Sudeste 0 819.6 -0.2 82
2019-09-21 10:00:00 9.6 23 Sudoeste 44 Sur 0 819.7 0.1 83
2019-09-21 09:00:00 9.4 28 Sur 53 Sudeste 0 819.6 0.1 82
2019-09-21 08:00:00 9.2 28 Sur 52 Sudoeste 0 819.8 0.1 88
2019-09-21 07:00:00 9 27 Sur 53 Sur 0 819.6 -0.2 82
2019-09-21 06:00:00 9.5 33 Sur 56 Sudoeste 0 819.5 -1 85
2019-09-21 05:00:00 10.1 26 Sur 63 Sudoeste 0.6 819.7 -1.3 87
2019-09-21 04:00:00 10.2 22 Sudoeste 57 Sudoeste 0 819.8 -1.2 88
2019-09-21 03:00:00 9.1 26 Sur 57 Sudoeste 5.4 820.5 -1.3 84
2019-09-21 02:00:00 10.5 22 Sur 66 Sudoeste 0.8 821 -1.3 85
2019-09-21 01:00:00 11 22 Sudoeste 53 Sudoeste 0.6 821 -1.1 81
2019-09-21 00:00:00 10.5 19 Sur 44 Sudoeste 5.4 821.8 0.3 76
2019-09-20 23:00:00 9.4 14 Sur 47 Sudoeste 10.4 822.3 1.3 87
2019-09-20 22:00:00 9.8 18 Sudoeste 59 Sur 4.8 822.1 1.1 82
2019-09-20 21:00:00 13.4 16 Sudoeste 41 Oeste 0 821.5 0.2 79
2019-09-20 20:00:00 13.6 14 Nordeste 67 Sudoeste 0 821 -0.3 78
2019-09-20 19:00:00 15.2 15 Noroeste 64 Este 0 821 -1 69
2019-09-20 18:00:00 14.7 18 Este 83 Sudeste 0 821.3 -1.3 72
2019-09-20 17:00:00 15.5 17 Sudeste 80 Sudeste 0 821.3 -1.7 67
2019-09-20 16:00:00 16.2 27 Sur 62 Sudeste 0 822 -1.2 66
2019-09-20 15:00:00 15.4 24 Sudeste 62 Sudeste 0 822.6 -0.9 70
2019-09-20 14:00:00 16.1 20 Sur 49 Sudeste 0 823 -0.4 65
2019-09-20 13:00:00 15 19 Sudeste 52 Sur 0 823.2 -0.2 68
2019-09-20 12:00:00 14.6 21 Sur 58 Sudeste 0 823.5 0.2 63
2019-09-20 11:00:00 14.9 24 Sur 62 Sur 0 823.4 0.3 65
2019-09-20 10:00:00 13.2 19 Sur 55 Oeste 0 823.4 0.4 68
2019-09-20 09:00:00 13.8 12 Sudoeste 54 Sudoeste 0 823.3 0.2 67
2019-09-20 08:00:00 12.9 18 Sur 50 Sudeste 0 823.1 -0.1 72
2019-09-20 07:00:00 13.2 12 Sur 49 Sudoeste 0 823 -0.7 70
2019-09-20 06:00:00 13 27 Sur 52 Sur 0 823.1 -0.9 74
2019-09-20 05:00:00 13.2 29 Sur 57 Sudeste 0 823.2 -1.2 73
2019-09-20 04:00:00 13.1 26 Sur 64 Sudeste 0 823.7 -0.8 75
2019-09-20 03:00:00 13.1 24 Sur 51 Sudoeste 0 824 -0.7 79
2019-09-20 02:00:00 13.5 19 Sur 47 Sudeste 0 824.4 -0.6 77
2019-09-20 01:00:00 13.7 26 Sur 40 Sudeste 0 824.5 -0.3 67
2019-09-20 00:00:00 14.2 19 Sur 46 Sudeste 0 824.7 0.4 62
2019-09-19 23:00:00 14.8 6 Sur 35 Sudoeste 0 825 1.1 58
2019-09-19 22:00:00 15 10 Sur 33 Sudeste 0 824.8 0.8 58
2019-09-19 21:00:00 14.7 14 Sur 27 Sur 0 824.3 0.3 55
2019-09-19 20:00:00 15 18 Sur 28 Sur 0 823.9 -0.2 57
2019-09-19 19:00:00 15.4 14 Sur 39 Sur 0 824 -0.5 57
2019-09-19 18:00:00 16.1 21 Sur 28 Sur 0 824 -0.7 59
2019-09-19 17:00:00 17.2 16 Sur 27 Sur 0 824.1 -0.8 51
2019-09-19 16:00:00 17.5 12 Sur 21 Sur 0 824.5 -0.6 53
2019-09-19 15:00:00 15.9 9 Sudoeste 19 Oeste 0 824.7 -0.5 60
2019-09-19 14:00:00 19.1 5 Oeste 16 Noroeste 0 824.9 -0.1 50
2019-09-19 13:00:00 17.7 3 Sudoeste 11 Noroeste 0 825.1 0.3 57
2019-09-19 12:00:00 16.1 6 Nordeste 11 Nordeste 0 825.2 0.8 61
2019-09-19 11:00:00 17 3 Nordeste 11 Noroeste 0 825 0.7 58
2019-09-19 10:00:00 13.2 6 Sur 18 Sur 0 824.8 0.7 60
2019-09-19 09:00:00 12.6 10 Sur 22 Sur 0 824.4 0.3 61
2019-09-19 08:00:00 12.1 8 Sur 25 Sudoeste 0 824.3 0 60
2019-09-19 07:00:00 11.4 13 Sur 22 Sur 0 824.1 -0.4 61
2019-09-19 06:00:00 12 8 Sudeste 24 Sur 0 824.1 -0.8 66
2019-09-19 05:00:00 12.3 12 Sur 20 Sur 0 824.3 -0.7 71
2019-09-19 04:00:00 12 14 Sur 20 Sur 0 824.5 -0.6 69
2019-09-19 03:00:00 11.2 6 Sudoeste 15 Sudoeste 0 824.9 -0.4 72
2019-09-19 02:00:00 11.1 6 Sudoeste 10 Sur 0 825 -0.3 74
2019-09-19 01:00:00 11.6 4 Sudoeste 9 Sudoeste 0 825.1 -0.2 78
2019-09-19 00:00:00 11.3 4 Sudoeste 12 Sudoeste 0 825.3 0.4 77